This is the latest recevied weather packets stored in our database for station/object VA3BOO. If no packets are shown the sender has not sent any weather packets the latest 10 day(s).
| Time | Temp. | Humidity | Pressure | Rain* | Wind** | Luminosity | Snow |
|---|---|---|---|---|---|---|---|
| 1777658704 | 12.78° C | 40% | 1012 hPa | 0 mm | - | 617 W/m² | - |
| 1777658404 | 12.22° C | 40% | 1011.7 hPa | 0 mm | - | 571 W/m² | - |
| 1777658104 | 12.78° C | 37% | 1011.8 hPa | 0 mm | - | 545 W/m² | - |
| 1777657804 | 12.78° C | 41% | 1011.9 hPa | 0 mm | - | 618 W/m² | - |
| 1777657504 | 12.78° C | 38% | 1011.9 hPa | 0 mm | - | 540 W/m² | - |
| 1777657204 | 12.78° C | 39% | 1011.8 hPa | 0 mm | - | 552 W/m² | - |
| 1777656904 | 12.78° C | 37% | 1011.8 hPa | 0 mm | - | 505 W/m² | - |
| 1777656604 | 12.22° C | 37% | 1012 hPa | 0 mm | - | 579 W/m² | - |
| 1777656304 | 12.22° C | 35% | 1012 hPa | 0 mm | - | 657 W/m² | - |
| 1777656004 | 12.22° C | 38% | 1012.1 hPa | 0 mm | - | 868 W/m² | - |
| 1777655704 | 12.22° C | 35% | 1012.2 hPa | 0 mm | - | 884 W/m² | - |
| 1777655404 | 11.11° C | 39% | 1012.3 hPa | 0 mm | - | 860 W/m² | - |
| 1777655104 | 11.11° C | 37% | 1012 hPa | 0 mm | - | 838 W/m² | - |
| 1777654804 | 11.11° C | 36% | 1012.1 hPa | 0 mm | - | 827 W/m² | - |
| 1777654504 | 11.11° C | 39% | 1012.3 hPa | 0 mm | - | 823 W/m² | - |
| 1777654204 | 10.56° C | 39% | 1012.3 hPa | 0 mm | - | 825 W/m² | - |
| 1777653904 | 11.11° C | 35% | 1012.5 hPa | 0 mm | - | 835 W/m² | - |
| 1777653604 | 10° C | 38% | 1012.6 hPa | 0 mm | - | 858 W/m² | - |
| 1777653304 | 10° C | 36% | 1012.6 hPa | 0 mm | - | 973 W/m² | - |
| 1777653004 | 10.56° C | 37% | 1012.7 hPa | 0 mm | - | 396 W/m² | - |
| 1777652704 | 11.11° C | 35% | 1012.9 hPa | 0 mm | - | 379 W/m² | - |
| 1777652404 | 11.11° C | 37% | 1012.9 hPa | 0 mm | - | 388 W/m² | - |
| 1777652104 | 11.11° C | 36% | 1013.1 hPa | 0 mm | - | 465 W/m² | - |
| 1777651804 | 10.56° C | 41% | 1013 hPa | 0 mm | - | 916 W/m² | - |
| 1777651504 | 10° C | 42% | 1013.1 hPa | 0 mm | - | 496 W/m² | - |
* Rain latest hour (hover to see other rain measurements)
** Current wind speed in m/s (hover to see current wind gust speed)